createdAt,value
2019-05-22T18:35:58.995Z,67.99
2019-05-22T18:36:55.194Z,68.56
2019-05-22T18:37:55.176Z,68.46
2019-05-22T18:38:54.941Z,68.18
2019-05-22T18:39:55.168Z,68.43
2019-05-22T18:40:55.190Z,68.43
2019-05-22T18:41:54.929Z,68.91
2019-05-22T18:42:54.938Z,68.52
2019-05-22T18:43:54.916Z,68.72
2019-05-22T18:44:55.152Z,68.91
2019-05-22T18:45:54.932Z,68.81
2019-05-22T18:46:57.982Z,69.1
2019-05-22T18:47:55.140Z,69.01
2019-05-22T18:48:54.925Z,69.2
2019-05-22T18:49:55.151Z,69.29
2019-05-22T18:50:54.899Z,69.1
2019-05-22T18:51:55.145Z,69.2
2019-05-22T18:52:55.141Z,69.29
2019-05-22T18:53:55.132Z,69.58
2019-05-22T18:54:54.923Z,69.39
2019-05-22T18:55:54.903Z,70.12
2019-05-22T18:56:54.888Z,70.44
2019-05-22T18:58:01.178Z,70.5
2019-05-22T18:58:55.121Z,70.41
2019-05-22T19:00:05.927Z,71.08
2019-05-22T19:00:54.893Z,70.89
2019-05-22T19:01:54.889Z,71.46
2019-05-22T19:02:54.888Z,71.46
2019-05-22T19:03:55.128Z,71.66
2019-05-22T19:04:54.884Z,72.23
2019-05-22T19:05:55.118Z,72.32
2019-05-22T19:06:58.232Z,72.42
2019-05-22T19:07:56.276Z,73.09
2019-05-22T19:08:55.155Z,73.47
2019-05-22T19:09:55.117Z,73.86
2019-05-22T19:10:54.880Z,74.3
2019-05-22T19:11:55.125Z,74.97
2019-05-22T19:12:55.117Z,75.26
2019-05-22T19:13:55.116Z,75.93
2019-05-22T19:14:55.106Z,77.36
2019-05-22T19:15:54.870Z,77.08
2019-05-22T19:16:54.905Z,77.42
2019-05-22T19:17:54.881Z,77.99
2019-05-22T19:18:58.134Z,78.19
2019-05-22T19:19:55.156Z,78.86
2019-05-22T19:20:55.112Z,78.76
2019-05-22T19:21:55.123Z,79.05
2019-05-22T19:23:03.313Z,79.14
2019-05-22T19:23:54.851Z,79.87
2019-05-22T19:24:55.110Z,79.87
2019-05-22T19:25:54.840Z,80.25
2019-05-22T19:26:54.832Z,80.16
2019-05-22T19:27:54.853Z,80.73
2019-05-22T19:28:55.086Z,81.02
2019-05-22T19:29:58.125Z,80.92
2019-05-22T19:30:55.074Z,81.02
2019-05-22T19:31:54.824Z,81.02
2019-05-22T19:32:55.085Z,80.92
2019-05-22T19:33:55.085Z,81.4
2019-05-22T19:34:55.070Z,81.68
2019-05-22T19:35:54.817Z,82.12
2019-05-22T19:36:56.727Z,81.97
2019-05-22T19:37:54.929Z,81.84
2019-05-22T19:38:55.108Z,81.65
2019-05-22T19:39:55.700Z,82.41
2019-05-22T19:40:55.067Z,82.7
2019-05-22T19:42:07.812Z,82.03
2019-05-22T19:42:55.042Z,81.65
2019-05-22T19:43:55.072Z,81.26
2019-05-22T19:44:55.063Z,81.74
2019-05-22T19:45:54.794Z,81.93
2019-05-22T19:46:55.056Z,82.12
2019-05-22T19:47:55.050Z,82.98
2019-05-22T19:48:55.029Z,82.98
2019-05-22T19:49:54.765Z,83.65
2019-05-22T19:50:57.796Z,83.56
2019-05-22T19:51:54.759Z,84.03
2019-05-22T19:52:55.271Z,84.8
2019-05-22T19:53:55.020Z,85.38
2019-05-22T19:54:55.028Z,85.66
2019-05-22T19:55:55.026Z,85.75
2019-05-22T19:56:55.049Z,85.85
2019-05-22T19:57:54.761Z,85.94
2019-05-22T19:58:54.753Z,86.23
2019-05-22T19:59:55.023Z,86.76
2019-05-22T20:00:55.047Z,86.29
2019-05-22T20:01:58.035Z,86.57
2019-05-22T20:02:54.763Z,86.47
2019-05-22T20:03:55.039Z,86.47
2019-05-22T20:04:54.743Z,85.81
2019-05-22T20:05:55.007Z,86.47
2019-05-22T20:06:54.731Z,86.57
2019-05-22T20:07:55.033Z,86.67
2019-05-22T20:08:54.735Z,86.57
2019-05-22T20:09:54.722Z,86.29
2019-05-22T20:10:55.000Z,86.57
2019-05-22T20:11:54.971Z,86.29
2019-05-22T20:13:01.253Z,86.19
2019-05-22T20:13:54.718Z,85.81
2019-05-22T20:14:54.955Z,85.71
2019-05-22T20:15:54.719Z,85.52
2019-05-22T20:16:54.974Z,85.71
2019-05-22T20:17:54.962Z,85.33
2019-05-22T20:18:54.981Z,84.28
2019-05-22T20:19:54.959Z,84.76
2019-05-22T20:20:54.955Z,84.56
2019-05-22T20:21:54.696Z,83.9
2019-05-22T20:22:56.524Z,83.99
2019-05-22T20:23:54.936Z,83.61
2019-05-22T20:24:54.682Z,83.9
2019-05-22T20:25:54.686Z,83.8
2019-05-22T20:26:54.931Z,84.47
2019-05-22T20:27:54.925Z,84.62
2019-05-22T20:28:54.962Z,84.72
2019-05-22T20:29:54.912Z,84.62
2019-05-22T20:30:54.667Z,84.91
2019-05-22T20:31:54.908Z,85.29
2019-05-22T20:32:54.653Z,85.1
2019-05-22T20:33:57.930Z,85.1
2019-05-22T20:34:54.642Z,85.19
2019-05-22T20:35:54.914Z,85.38
2019-05-22T20:36:54.891Z,85.29
2019-05-22T20:37:54.887Z,85.29
2019-05-22T20:38:54.897Z,85.19
2019-05-22T20:39:54.892Z,85.38
2019-05-22T20:40:54.896Z,85.67
2019-05-22T20:41:54.618Z,85.86
2019-05-22T20:42:54.617Z,85.58
2019-05-22T20:43:54.889Z,86.53
2019-05-22T20:44:57.902Z,86.15
2019-05-22T20:45:54.890Z,86.34
2019-05-22T20:46:54.851Z,86.53
2019-05-22T20:47:54.855Z,86.91
2019-05-22T20:48:54.853Z,86.63
2019-05-22T20:49:54.870Z,86.53
2019-05-22T20:50:54.846Z,86.72
2019-05-22T20:51:54.865Z,86.77
2019-05-22T20:52:55.680Z,87.48
2019-05-22T20:53:57.223Z,87.35
2019-05-22T20:54:55.462Z,88.59
2019-05-22T20:55:54.843Z,89.06
2019-05-22T20:56:54.567Z,89.54
2019-05-22T20:57:54.859Z,90.11
2019-05-22T20:58:54.625Z,90.4
2019-05-22T20:59:54.798Z,90.97
2019-05-22T21:00:54.583Z,90.78
2019-05-22T21:01:54.792Z,91.16
2019-05-22T21:02:54.796Z,91.64
2019-05-22T21:03:54.545Z,92.21
2019-05-22T21:04:54.579Z,91.93
2019-05-22T21:05:57.844Z,92.69
2019-05-22T21:06:54.530Z,92.83
2019-05-22T21:07:54.525Z,92.74
2019-05-22T21:08:54.768Z,92.88
2019-05-22T21:09:54.761Z,92.83
2019-05-22T21:10:54.594Z,92.65
2019-05-22T21:11:54.756Z,93.22
2019-05-22T21:12:54.544Z,93.02
2019-05-22T21:13:54.755Z,93.51
2019-05-22T21:14:54.749Z,93.31
2019-05-22T21:15:54.509Z,93.79
2019-05-22T21:16:57.776Z,93.7
2019-05-22T21:17:54.507Z,93.7
2019-05-22T21:18:54.876Z,94.56
2019-05-22T21:19:54.487Z,94.46
2019-05-22T21:20:57.510Z,94.56
2019-05-22T21:21:54.727Z,94.17
2019-05-22T21:22:54.727Z,94.17
2019-05-22T21:24:09.269Z,94.36
2019-05-22T21:24:54.712Z,94.65
2019-05-22T21:25:54.710Z,94.56
2019-05-22T21:26:54.478Z,95.03
2019-05-22T21:28:00.998Z,95.41
2019-05-22T21:28:54.452Z,95.22
2019-05-22T21:29:54.705Z,96.08
2019-05-22T21:30:54.474Z,96.27
2019-05-22T21:31:54.445Z,96.17
2019-05-22T21:32:54.440Z,96.32
2019-05-22T21:33:54.682Z,96.37
2019-05-22T21:34:54.424Z,96.56
2019-05-22T21:35:54.681Z,97.03
2019-05-22T21:36:54.413Z,97.71
2019-05-22T21:37:55.840Z,97.75
2019-05-22T21:38:54.675Z,97.94
2019-05-22T21:39:54.655Z,97.85
2019-05-22T21:40:54.408Z,97.85
2019-05-22T21:41:54.410Z,97.17
2019-05-22T21:42:54.647Z,97.85
2019-05-22T21:43:54.660Z,97.75
2019-05-22T21:44:54.646Z,98.42
2019-05-22T21:45:54.396Z,98.42
2019-05-22T21:46:54.647Z,98.8
2019-05-22T21:47:54.388Z,99.18
2019-05-22T21:48:59.431Z,99.37
2019-05-22T21:49:54.390Z,99.18
2019-05-22T21:50:54.622Z,99.95
2019-05-22T21:51:54.383Z,99.66
2019-05-22T21:52:54.607Z,99.99
2019-05-22T21:53:54.594Z,99.99
2019-05-22T21:54:54.595Z,99.99
2019-05-22T21:56:07.063Z,99.99
2019-05-22T21:56:54.334Z,99.99
2019-05-22T21:57:54.618Z,99.99
2019-05-22T21:58:54.330Z,99.99
2019-05-22T21:59:57.603Z,99.99
2019-05-22T22:00:54.325Z,99.99
2019-05-22T22:01:54.567Z,99.99
2019-05-22T22:02:54.573Z,99.99
2019-05-22T22:03:54.556Z,99.99
2019-05-22T22:04:54.563Z,99.99
2019-05-22T22:05:54.311Z,99.99
2019-05-22T22:06:54.622Z,99.99
2019-05-22T22:07:54.291Z,99.99
2019-05-22T22:08:54.545Z,99.99
2019-05-22T22:09:54.911Z,99.99
2019-05-22T22:10:54.534Z,99.99
2019-05-22T22:11:54.292Z,99.99
2019-05-22T22:12:54.525Z,99.99
2019-05-22T22:13:54.524Z,99.99
2019-05-22T22:14:54.279Z,99.99
2019-05-22T22:15:54.263Z,99.99
2019-05-22T22:16:54.509Z,99.99
2019-05-22T22:17:54.254Z,99.99
2019-05-22T22:18:54.498Z,99.99
2019-05-22T22:19:54.499Z,99.99
2019-05-22T22:20:57.522Z,99.99
2019-05-22T22:21:54.312Z,99.99
2019-05-22T22:22:54.230Z,99.99
2019-05-22T22:23:54.230Z,99.99
2019-05-22T22:24:54.287Z,99.99
2019-05-22T22:25:54.212Z,99.99
2019-05-22T22:26:54.467Z,99.99
2019-05-22T22:27:54.465Z,99.99
2019-05-22T22:28:54.456Z,99.99
2019-05-22T22:29:54.441Z,99.99
2019-05-22T22:30:54.438Z,99.99
2019-05-22T22:31:57.464Z,99.99
2019-05-22T22:32:54.422Z,99.99
2019-05-22T22:33:54.171Z,99.99
2019-05-22T22:34:54.428Z,99.99
2019-05-22T22:35:54.427Z,99.99
2019-05-22T22:36:54.406Z,99.99
2019-05-22T22:37:54.416Z,99.99
2019-05-22T22:38:54.157Z,99.99
2019-05-22T22:39:54.390Z,99.99
2019-05-22T22:40:54.179Z,99.99
2019-05-22T22:41:54.392Z,99.99
2019-05-22T22:43:00.657Z,99.99
2019-05-22T22:43:54.139Z,99.99
2019-05-22T22:44:54.369Z,99.99
2019-05-22T22:45:54.367Z,99.99
2019-05-22T22:46:54.374Z,99.99
2019-05-22T22:47:54.106Z,99.99
2019-05-22T22:48:54.101Z,99.99
2019-05-22T22:49:54.346Z,99.99
2019-05-22T22:50:54.104Z,99.99
2019-05-22T22:51:54.338Z,99.99
2019-05-22T22:52:55.765Z,99.99
2019-05-22T22:53:54.356Z,99.99
2019-05-22T22:54:54.325Z,99.99
2019-05-22T22:55:54.315Z,99.99
2019-05-22T22:56:54.412Z,99.99
2019-05-22T22:57:54.058Z,99.99
2019-05-22T22:58:54.306Z,99.99
2019-05-22T22:59:54.056Z,99.99
2019-05-22T23:00:54.048Z,99.99
2019-05-22T23:01:54.312Z,99.99
2019-05-22T23:02:54.296Z,99.99
2019-05-22T23:04:00.308Z,99.99
2019-05-22T23:04:54.274Z,99.99
2019-05-22T23:05:54.018Z,99.99
2019-05-22T23:06:54.264Z,99.99
2019-05-22T23:07:54.284Z,99.99
2019-05-22T23:08:54.259Z,99.99
2019-05-22T23:09:54.297Z,99.99
2019-05-22T23:10:54.262Z,99.99
2019-05-22T23:11:54.238Z,99.99
2019-05-22T23:12:53.983Z,99.99
2019-05-22T23:13:54.010Z,99.99
2019-05-22T23:14:57.257Z,99.99
2019-05-22T23:15:54.223Z,99.99
2019-05-22T23:16:54.225Z,99.99
2019-05-22T23:17:54.220Z,99.99
2019-05-22T23:18:53.954Z,99.99
2019-05-22T23:19:54.226Z,99.99
2019-05-22T23:20:54.204Z,99.99
2019-05-22T23:21:54.208Z,99.99
2019-05-22T23:22:53.968Z,99.99
2019-05-22T23:23:53.931Z,99.99
2019-05-22T23:24:55.128Z,99.99
2019-05-22T23:25:53.919Z,99.99
2019-05-22T23:26:54.229Z,99.99
2019-05-22T23:27:54.157Z,99.99
2019-05-22T23:28:53.903Z,99.99
2019-05-22T23:29:54.173Z,99.99
2019-05-22T23:30:53.905Z,99.99
2019-05-22T23:31:54.154Z,99.99
2019-05-22T23:32:54.146Z,99.99
2019-05-22T23:33:54.160Z,99.99
2019-05-22T23:34:54.135Z,99.99
2019-05-22T23:35:56.904Z,99.99
2019-05-22T23:36:54.125Z,99.99
2019-05-22T23:37:53.933Z,99.99
2019-05-22T23:38:54.108Z,99.99
2019-05-22T23:39:54.145Z,99.99
2019-05-22T23:40:54.107Z,99.99
2019-05-22T23:41:56.349Z,99.99
2019-05-22T23:42:54.091Z,99.99
2019-05-22T23:43:54.083Z,99.99
2019-05-22T23:44:54.066Z,99.99
2019-05-22T23:45:54.067Z,99.99
2019-05-22T23:46:57.100Z,99.99
2019-05-22T23:47:53.805Z,99.99
2019-05-22T23:48:54.048Z,99.99
2019-05-22T23:49:54.035Z,99.99
2019-05-22T23:50:54.038Z,99.99
2019-05-22T23:51:53.781Z,99.99
2019-05-22T23:52:54.028Z,99.99
2019-05-22T23:53:54.014Z,99.99
2019-05-22T23:54:53.838Z,99.99
2019-05-22T23:55:54.008Z,99.99
2019-05-22T23:56:54.003Z,99.99
2019-05-22T23:57:53.750Z,99.99
2019-05-22T23:58:55.822Z,99.99
2019-05-22T23:59:53.984Z,99.99
